createdAt,value
2022-10-21T00:01:56.566Z,4.55
2022-10-21T00:03:58.182Z,4.97
2022-10-21T00:05:59.927Z,5.03
2022-10-21T00:08:01.521Z,4.70
2022-10-21T00:10:05.000Z,4.80
2022-10-21T00:12:06.694Z,4.82
2022-10-21T00:14:08.261Z,5.32
2022-10-21T00:16:13.043Z,4.75
2022-10-21T00:18:14.686Z,4.35
2022-10-21T00:20:16.843Z,4.30
2022-10-21T00:22:18.534Z,4.40
2022-10-21T00:24:20.102Z,4.75
2022-10-21T00:26:21.895Z,4.65
2022-10-21T00:28:23.688Z,4.70
2022-10-21T00:30:25.254Z,4.75
2022-10-21T00:32:26.929Z,4.80
2022-10-21T00:34:30.749Z,4.03
2022-10-21T00:36:32.738Z,5.05
2022-10-21T00:38:35.773Z,4.60
2022-10-21T00:40:38.864Z,4.38
2022-10-21T00:42:44.028Z,4.25
2022-10-21T00:45:06.873Z,4.57
2022-10-21T00:47:15.984Z,4.43
2022-10-21T00:49:41.079Z,3.97
2022-10-21T00:51:45.675Z,4.28
2022-10-21T00:53:50.134Z,4.63
2022-10-21T00:55:58.512Z,4.57
2022-10-21T00:58:03.423Z,4.32
2022-10-21T01:00:06.571Z,4.38
2022-10-21T01:02:08.670Z,4.63
2022-10-21T01:04:10.887Z,4.20
2022-10-21T01:06:13.990Z,4.65
2022-10-21T01:08:18.582Z,4.57
2022-10-21T01:10:20.191Z,4.25
2022-10-21T01:12:46.661Z,4.57
2022-10-21T01:15:25.943Z,4.35
2022-10-21T01:17:47.689Z,4.72
2022-10-21T01:20:01.924Z,4.30
2022-10-21T01:22:08.444Z,4.72
2022-10-21T01:24:38.763Z,5.13
2022-10-21T01:26:55.524Z,4.90
2022-10-21T01:29:25.225Z,4.45
2022-10-21T01:31:40.135Z,4.57
2022-10-21T01:33:47.800Z,4.63
2022-10-21T01:36:19.753Z,4.38
2022-10-21T01:38:49.220Z,4.47
2022-10-21T01:41:18.798Z,4.80
2022-10-21T01:43:48.025Z,4.47
2022-10-21T01:45:56.418Z,4.50
2022-10-21T01:48:21.824Z,4.10
2022-10-21T01:50:28.336Z,4.25
2022-10-21T01:52:30.742Z,4.22
2022-10-21T01:54:45.122Z,4.35
2022-10-21T01:56:48.339Z,4.50
2022-10-21T01:58:51.898Z,4.47
2022-10-21T02:00:57.387Z,4.32
2022-10-21T02:03:02.300Z,4.40
2022-10-21T02:05:12.468Z,4.93
2022-10-21T02:07:14.148Z,5.07
2022-10-21T02:09:15.784Z,4.35
2022-10-21T02:11:19.146Z,4.68
2022-10-21T02:13:26.779Z,4.93
2022-10-21T02:15:30.063Z,4.45
2022-10-21T02:17:31.803Z,4.38
2022-10-21T02:19:33.547Z,4.82
2022-10-21T02:21:36.380Z,4.65
2022-10-21T02:23:50.794Z,4.80
2022-10-21T02:25:52.544Z,4.80
2022-10-21T02:27:54.929Z,4.47
2022-10-21T02:29:59.726Z,4.40
2022-10-21T02:32:24.384Z,4.47
2022-10-21T02:34:43.531Z,4.38
2022-10-21T02:37:14.717Z,4.85
2022-10-21T02:39:26.723Z,4.88
2022-10-21T02:41:30.681Z,4.40
2022-10-21T02:43:38.664Z,4.80
2022-10-21T02:45:40.636Z,4.18
2022-10-21T02:47:43.796Z,4.25
2022-10-21T02:49:46.498Z,4.03
2022-10-21T02:51:48.433Z,4.95
2022-10-21T02:53:50.084Z,4.55
2022-10-21T02:55:51.804Z,4.65
2022-10-21T02:57:53.496Z,4.95
2022-10-21T02:59:54.974Z,4.28
2022-10-21T03:01:56.796Z,4.70
2022-10-21T03:03:58.373Z,4.50
2022-10-21T03:05:59.883Z,5.10
2022-10-21T03:08:01.480Z,4.78
2022-10-21T03:10:03.148Z,4.57
2022-10-21T03:12:04.962Z,4.35
2022-10-21T03:14:06.467Z,5.05
2022-10-21T03:16:09.613Z,5.22
2022-10-21T03:18:11.439Z,4.57
2022-10-21T03:20:13.295Z,4.63
2022-10-21T03:22:14.883Z,4.53
2022-10-21T03:24:27.828Z,4.70
2022-10-21T03:26:30.244Z,4.40
2022-10-21T03:28:31.905Z,4.18
2022-10-21T03:30:33.650Z,5.15
2022-10-21T03:32:36.084Z,5.13
2022-10-21T03:34:37.887Z,4.47
2022-10-21T03:36:39.407Z,4.70
2022-10-21T03:38:41.171Z,4.97
2022-10-21T03:40:42.700Z,4.82
2022-10-21T03:42:44.387Z,4.78
2022-10-21T03:44:45.982Z,4.63
2022-10-21T03:46:47.629Z,4.88
2022-10-21T03:48:49.443Z,4.40
2022-10-21T03:50:51.033Z,4.95
2022-10-21T03:52:52.851Z,4.72
2022-10-21T03:54:54.616Z,4.25
2022-10-21T03:56:56.306Z,4.32
2022-10-21T03:58:58.884Z,4.63
2022-10-21T04:01:00.588Z,4.90
2022-10-21T04:03:02.465Z,5.10
2022-10-21T04:05:04.553Z,4.43
2022-10-21T04:07:06.366Z,5.47
2022-10-21T04:09:08.007Z,4.57
2022-10-21T04:11:09.593Z,4.93
2022-10-21T04:13:13.802Z,4.47
2022-10-21T04:15:15.313Z,4.70
2022-10-21T04:17:17.084Z,4.85
2022-10-21T04:19:19.963Z,5.50
2022-10-21T04:23:28.021Z,5.10
2022-10-21T04:25:29.522Z,5.40
2022-10-21T04:27:31.345Z,4.88
2022-10-21T04:29:32.996Z,4.65
2022-10-21T04:31:34.847Z,4.80
2022-10-21T04:33:36.803Z,5.28
2022-10-21T04:35:41.150Z,5.43
2022-10-21T04:37:43.226Z,5.13
2022-10-21T04:39:44.909Z,5.50
2022-10-21T04:41:47.932Z,5.68
2022-10-21T04:43:49.608Z,5.10
2022-10-21T04:45:51.299Z,5.60
2022-10-21T04:47:53.070Z,5.90
2022-10-21T04:49:54.693Z,5.47
2022-10-21T04:52:07.946Z,6.20
2022-10-21T04:54:16.444Z,5.30
2022-10-21T04:56:18.009Z,5.68
2022-10-21T04:58:22.045Z,5.68
2022-10-21T05:00:23.970Z,5.93
2022-10-21T05:02:25.860Z,6.18
2022-10-21T05:04:28.619Z,5.70
2022-10-21T05:06:30.594Z,5.20
2022-10-21T05:08:32.660Z,5.18
2022-10-21T05:10:34.381Z,5.82
2022-10-21T05:12:37.855Z,5.88
2022-10-21T05:14:39.627Z,5.75
2022-10-21T05:16:41.315Z,5.63
2022-10-21T05:18:43.031Z,5.65
2022-10-21T05:20:51.937Z,5.13
2022-10-21T05:22:54.307Z,5.60
2022-10-21T05:24:55.986Z,5.57
2022-10-21T05:26:57.614Z,6.10
2022-10-21T05:28:59.759Z,5.90
2022-10-21T05:31:01.341Z,5.97
2022-10-21T05:33:03.127Z,6.22
2022-10-21T05:35:05.031Z,5.95
2022-10-21T05:37:12.795Z,5.70
2022-10-21T05:39:14.613Z,5.60
2022-10-21T05:41:16.684Z,5.95
2022-10-21T05:43:18.637Z,6.03
2022-10-21T05:45:21.277Z,5.53
2022-10-21T05:47:24.208Z,6.05
2022-10-21T05:49:36.374Z,5.55
2022-10-21T05:51:38.151Z,6.22
2022-10-21T05:53:39.978Z,5.60
2022-10-21T05:55:41.826Z,5.70
2022-10-21T05:57:44.252Z,5.30
2022-10-21T05:59:46.006Z,5.32
2022-10-21T06:01:55.121Z,5.47
2022-10-21T06:03:56.748Z,5.90
2022-10-21T06:06:10.889Z,5.78
2022-10-21T06:08:12.507Z,6.07
2022-10-21T06:10:16.623Z,6.35
2022-10-21T06:12:18.162Z,5.97
2022-10-21T06:14:23.034Z,6.85
2022-10-21T06:16:24.623Z,6.95
2022-10-21T06:18:27.014Z,6.65
2022-10-21T06:20:31.743Z,7.07
2022-10-21T06:22:33.332Z,6.93
2022-10-21T06:24:39.821Z,7.10
2022-10-21T06:26:44.306Z,6.78
2022-10-21T06:28:47.117Z,7.20
2022-10-21T06:30:52.102Z,6.00
2022-10-21T06:32:53.621Z,6.93
2022-10-21T06:34:59.374Z,6.07
2022-10-21T06:37:07.104Z,6.20
2022-10-21T06:39:09.052Z,6.40
2022-10-21T06:41:17.372Z,6.00
2022-10-21T06:45:28.090Z,6.47
2022-10-21T06:47:30.142Z,6.13
2022-10-21T06:49:32.068Z,5.97
2022-10-21T06:51:36.629Z,5.40
2022-10-21T06:53:39.365Z,5.15
2022-10-21T06:55:44.498Z,5.13
2022-10-21T06:57:46.084Z,5.60
2022-10-21T06:59:48.115Z,4.93
2022-10-21T07:01:59.622Z,4.50
2022-10-21T07:04:03.513Z,4.80
2022-10-21T07:06:11.396Z,5.03
2022-10-21T07:08:19.805Z,5.07
2022-10-21T07:10:24.012Z,5.10
2022-10-21T07:12:27.017Z,5.13
2022-10-21T07:14:31.222Z,4.40
2022-10-21T07:16:36.607Z,4.82
2022-10-21T07:18:42.636Z,4.90
2022-10-21T07:20:44.471Z,5.28
2022-10-21T07:22:46.058Z,5.05
2022-10-21T07:24:49.492Z,4.63
2022-10-21T07:26:51.782Z,4.82
2022-10-21T07:28:54.993Z,4.63
2022-10-21T07:31:06.698Z,4.57
2022-10-21T07:33:08.883Z,4.47
2022-10-21T07:35:15.532Z,4.70
2022-10-21T07:37:17.081Z,4.50
2022-10-21T07:39:22.645Z,4.75
2022-10-21T07:41:30.950Z,4.78
2022-10-21T07:43:49.860Z,4.30
2022-10-21T07:45:53.734Z,4.50
2022-10-21T07:47:55.370Z,4.60
2022-10-21T07:49:57.753Z,4.95
2022-10-21T07:51:59.750Z,4.53
2022-10-21T07:54:02.087Z,4.75
2022-10-21T07:56:26.121Z,5.05
2022-10-21T07:58:28.122Z,4.72
2022-10-21T08:00:29.750Z,5.20
2022-10-21T08:02:33.240Z,4.82
2022-10-21T08:04:34.952Z,4.63
2022-10-21T08:06:36.862Z,4.75
2022-10-21T08:08:41.323Z,4.55
2022-10-21T08:10:52.785Z,4.32
2022-10-21T08:12:54.830Z,4.47
2022-10-21T08:14:56.438Z,5.10
2022-10-21T08:17:00.470Z,5.00
2022-10-21T08:19:32.258Z,4.40
2022-10-21T08:21:40.114Z,4.75
2022-10-21T08:23:43.722Z,4.28
2022-10-21T08:25:51.552Z,4.90
2022-10-21T08:27:53.155Z,4.75
2022-10-21T08:30:09.787Z,4.65
2022-10-21T08:32:12.693Z,4.50
2022-10-21T08:34:17.070Z,4.55
2022-10-21T08:36:21.904Z,4.65
2022-10-21T08:38:23.669Z,4.57
2022-10-21T08:40:26.194Z,4.15
2022-10-21T08:42:37.573Z,4.57
2022-10-21T08:44:44.764Z,4.97
2022-10-21T08:49:42.250Z,5.07
2022-10-21T08:51:54.748Z,5.07
2022-10-21T08:54:01.560Z,4.60
2022-10-21T08:56:15.664Z,5.35
2022-10-21T08:58:26.035Z,5.35
2022-10-21T09:00:54.259Z,5.00
2022-10-21T09:03:15.929Z,4.53
2022-10-21T09:05:40.756Z,4.50
2022-10-21T09:07:56.514Z,5.00
2022-10-21T09:10:16.172Z,5.20
2022-10-21T09:12:35.695Z,4.95
2022-10-21T09:14:57.270Z,5.25
2022-10-21T09:17:26.857Z,4.60
2022-10-21T09:19:50.350Z,5.30
2022-10-21T09:22:34.698Z,5.72
2022-10-21T09:24:46.317Z,5.78
2022-10-21T09:26:50.978Z,5.03
2022-10-21T09:28:54.073Z,5.40
2022-10-21T09:30:58.654Z,4.70
2022-10-21T09:33:02.356Z,4.72
2022-10-21T09:35:16.634Z,4.70
2022-10-21T09:37:43.467Z,4.78
2022-10-21T09:39:49.346Z,4.60
2022-10-21T09:41:59.346Z,4.90
2022-10-21T09:44:06.955Z,5.10
2022-10-21T09:46:13.086Z,4.88
2022-10-21T09:48:19.473Z,4.72
2022-10-21T09:50:21.395Z,4.70
2022-10-21T09:52:35.113Z,5.40
2022-10-21T09:54:40.370Z,4.85
2022-10-21T09:56:51.629Z,5.10
2022-10-21T09:59:17.762Z,4.50
2022-10-21T10:01:24.196Z,4.80
2022-10-21T10:03:46.714Z,4.60
2022-10-21T10:05:56.229Z,4.60
2022-10-21T10:07:57.927Z,5.68
2022-10-21T10:10:32.965Z,4.63
2022-10-21T10:12:47.854Z,4.90
2022-10-21T10:14:49.598Z,5.13
2022-10-21T10:16:55.641Z,4.68
2022-10-21T10:19:24.549Z,4.88
2022-10-21T10:21:26.425Z,4.32
2022-10-21T10:23:27.926Z,4.93
2022-10-21T10:25:34.881Z,4.82
2022-10-21T10:27:38.710Z,4.30
2022-10-21T10:29:45.248Z,5.25
2022-10-21T10:31:54.499Z,5.03
2022-10-21T10:34:05.448Z,4.80
2022-10-21T10:36:09.674Z,4.47
2022-10-21T10:38:22.070Z,5.18
2022-10-21T10:40:28.906Z,5.07
2022-10-21T10:42:35.657Z,4.93
2022-10-21T10:44:48.124Z,4.63
2022-10-21T10:46:55.846Z,5.18
2022-10-21T10:49:09.841Z,5.22
2022-10-21T10:51:32.569Z,5.07
2022-10-21T10:53:36.771Z,4.82
2022-10-21T10:55:43.995Z,4.95
2022-10-21T10:58:06.210Z,5.38
2022-10-21T11:00:17.007Z,5.20
2022-10-21T11:02:31.920Z,5.03
2022-10-21T11:05:16.806Z,4.85
2022-10-21T11:07:45.139Z,4.70
2022-10-21T11:09:48.595Z,4.90
2022-10-21T11:11:54.877Z,4.88
2022-10-21T11:14:02.012Z,5.13
2022-10-21T11:16:45.130Z,5.30
2022-10-21T11:19:19.105Z,5.53
2022-10-21T11:21:23.622Z,5.60
2022-10-21T11:23:37.284Z,5.63
2022-10-21T11:25:46.850Z,5.68
2022-10-21T11:28:14.534Z,5.20
2022-10-21T11:30:22.139Z,5.18
2022-10-21T11:32:27.694Z,5.57
2022-10-21T11:34:50.194Z,6.05
2022-10-21T11:37:30.204Z,6.35
2022-10-21T11:39:43.038Z,6.57
2022-10-21T11:41:57.399Z,5.60
2022-10-21T11:44:26.083Z,5.82
2022-10-21T11:46:40.027Z,6.30
2022-10-21T11:49:06.894Z,6.75
2022-10-21T11:51:27.145Z,6.05
2022-10-21T11:53:56.012Z,6.18
2022-10-21T11:56:07.656Z,5.72
2022-10-21T11:58:41.423Z,5.55
2022-10-21T12:00:56.586Z,6.05
2022-10-21T12:03:21.275Z,5.72
2022-10-21T12:05:32.670Z,5.43
2022-10-21T12:07:55.797Z,6.75
2022-10-21T12:10:10.755Z,6.10
2022-10-21T12:12:21.465Z,5.85
2022-10-21T12:14:31.780Z,6.40
2022-10-21T12:16:34.883Z,6.20
2022-10-21T12:18:55.653Z,5.78
2022-10-21T12:21:03.253Z,6.00
2022-10-21T12:23:06.670Z,6.07
2022-10-21T12:25:17.126Z,6.38
2022-10-21T12:27:45.094Z,6.00
2022-10-21T12:30:04.638Z,5.88
2022-10-21T12:32:38.993Z,6.43
2022-10-21T12:34:40.706Z,5.97
2022-10-21T12:36:54.469Z,5.88
2022-10-21T12:38:58.904Z,5.80
2022-10-21T12:41:23.859Z,5.35
2022-10-21T12:43:28.632Z,4.90
2022-10-21T12:45:33.515Z,4.90
2022-10-21T12:47:48.103Z,4.38
2022-10-21T12:50:09.754Z,4.85
2022-10-21T12:52:15.768Z,4.53
2022-10-21T12:54:24.218Z,4.22
2022-10-21T12:56:59.732Z,4.47
2022-10-21T12:59:06.292Z,4.57
2022-10-21T13:01:52.531Z,4.30
2022-10-21T13:03:55.812Z,4.65
2022-10-21T13:06:02.154Z,4.28
2022-10-21T13:08:27.173Z,4.68
2022-10-21T13:10:28.786Z,4.60
2022-10-21T13:12:31.983Z,4.60
2022-10-21T13:14:39.993Z,4.53
2022-10-21T13:16:41.777Z,4.18
2022-10-21T13:18:56.072Z,4.25
2022-10-21T13:21:01.142Z,3.83
2022-10-21T13:23:32.691Z,4.47
2022-10-21T13:25:36.209Z,4.03
2022-10-21T13:27:39.317Z,4.70
2022-10-21T13:29:54.389Z,4.13
2022-10-21T13:32:13.826Z,3.97
2022-10-21T13:34:32.748Z,3.92
2022-10-21T13:36:39.115Z,4.65
2022-10-21T13:38:53.053Z,4.90
2022-10-21T13:40:59.274Z,3.70
2022-10-21T13:43:05.150Z,4.07
2022-10-21T13:45:46.642Z,4.53
2022-10-21T13:48:03.571Z,4.45
2022-10-21T13:50:32.614Z,4.75
2022-10-21T13:52:34.183Z,4.28
2022-10-21T13:54:35.806Z,3.90
2022-10-21T13:56:40.291Z,4.40
2022-10-21T13:58:43.826Z,4.10
2022-10-21T14:00:45.531Z,4.57
2022-10-21T14:02:51.717Z,4.30
2022-10-21T14:04:53.443Z,4.45
2022-10-21T14:06:59.278Z,4.20
2022-10-21T14:09:08.183Z,4.63
2022-10-21T14:11:18.095Z,4.43
2022-10-21T14:13:25.343Z,4.00
2022-10-21T14:15:39.594Z,4.40
2022-10-21T14:17:48.546Z,4.00
2022-10-21T14:20:15.524Z,3.80
2022-10-21T14:22:22.615Z,3.97
2022-10-21T14:24:42.888Z,4.03
2022-10-21T14:26:50.682Z,4.25
2022-10-21T14:28:52.924Z,3.90
2022-10-21T14:30:55.067Z,4.32
2022-10-21T14:32:59.408Z,3.95
2022-10-21T14:35:27.766Z,4.38
2022-10-21T14:37:55.296Z,4.38
2022-10-21T14:40:26.440Z,4.05
2022-10-21T14:42:32.765Z,3.92
2022-10-21T14:44:34.802Z,4.15
2022-10-21T14:47:05.250Z,4.20
2022-10-21T14:49:08.024Z,4.55
2022-10-21T14:51:15.259Z,4.53
2022-10-21T14:53:27.071Z,4.90
2022-10-21T14:55:30.131Z,4.80
2022-10-21T14:57:32.337Z,5.65
2022-10-21T14:59:41.696Z,5.80
2022-10-21T15:01:44.081Z,5.13
2022-10-21T15:03:49.629Z,4.60
2022-10-21T15:05:51.119Z,5.15
2022-10-21T15:08:16.285Z,5.47
2022-10-21T15:10:20.116Z,5.97
2022-10-21T15:12:21.633Z,5.90
2022-10-21T15:14:29.027Z,5.40
2022-10-21T15:16:31.919Z,5.80
2022-10-21T15:18:43.097Z,4.72
2022-10-21T15:21:05.759Z,4.78
2022-10-21T15:23:19.960Z,4.85
2022-10-21T15:25:23.981Z,5.63
2022-10-21T15:27:37.056Z,4.43
2022-10-21T15:29:44.938Z,4.03
2022-10-21T15:31:46.862Z,4.10
2022-10-21T15:33:50.130Z,3.67
2022-10-21T15:36:09.475Z,3.25
2022-10-21T15:38:11.227Z,3.60
2022-10-21T15:40:12.985Z,4.15
2022-10-21T15:42:22.319Z,3.75
2022-10-21T15:44:29.807Z,3.35
2022-10-21T15:46:45.756Z,3.80
2022-10-21T15:48:55.632Z,3.60
2022-10-21T15:51:01.512Z,3.28
2022-10-21T15:53:03.616Z,3.35
2022-10-21T15:55:05.702Z,3.25
2022-10-21T15:57:20.170Z,3.05
2022-10-21T15:59:28.891Z,2.85
2022-10-21T16:01:30.559Z,2.92
2022-10-21T16:03:32.178Z,3.03
2022-10-21T16:05:33.867Z,3.63
2022-10-21T16:07:36.951Z,3.22
2022-10-21T16:09:44.374Z,3.70
2022-10-21T16:11:59.099Z,3.10
2022-10-21T16:14:04.475Z,3.47
2022-10-21T16:16:24.687Z,3.72
2022-10-21T16:18:26.551Z,4.05
2022-10-21T16:20:33.625Z,4.15
2022-10-21T16:22:35.171Z,3.90
2022-10-21T16:24:36.834Z,3.78
2022-10-21T16:26:49.337Z,3.67
2022-10-21T16:28:56.752Z,3.58
2022-10-21T16:30:59.234Z,3.72
2022-10-21T16:33:01.101Z,3.97
2022-10-21T16:35:02.822Z,3.78
2022-10-21T16:37:18.172Z,3.75
2022-10-21T16:39:24.234Z,4.07
2022-10-21T16:41:28.634Z,4.43
2022-10-21T16:43:30.329Z,4.65
2022-10-21T16:45:32.870Z,4.57
2022-10-21T16:47:34.536Z,4.80
2022-10-21T16:49:35.934Z,5.65
2022-10-21T16:51:38.728Z,7.10
2022-10-21T16:53:40.674Z,8.68
2022-10-21T16:55:42.278Z,8.65
2022-10-21T16:57:44.360Z,9.57
2022-10-21T16:59:45.886Z,9.40
2022-10-21T17:01:47.604Z,8.90
2022-10-21T17:03:52.125Z,7.68
2022-10-21T17:05:53.774Z,7.72
2022-10-21T17:07:55.253Z,6.93
2022-10-21T17:09:56.977Z,6.78
2022-10-21T17:11:58.527Z,5.38
2022-10-21T17:14:01.955Z,5.80
2022-10-21T17:16:04.074Z,5.57
2022-10-21T17:18:05.653Z,5.57
2022-10-21T17:20:07.783Z,5.22
2022-10-21T17:22:19.432Z,5.40
2022-10-21T17:24:21.188Z,5.20
2022-10-21T17:26:23.565Z,5.18
2022-10-21T17:28:25.402Z,5.07
2022-10-21T17:30:27.104Z,5.03
2022-10-21T17:32:28.828Z,5.00
2022-10-21T17:34:33.233Z,4.47
2022-10-21T17:36:39.687Z,5.32
2022-10-21T17:38:42.345Z,4.68
2022-10-21T17:40:43.988Z,4.50
2022-10-21T17:42:46.407Z,3.85
2022-10-21T17:44:48.068Z,4.78
2022-10-21T17:46:54.406Z,4.40
2022-10-21T17:48:57.922Z,3.97
2022-10-21T17:51:03.283Z,4.55
2022-10-21T17:53:04.865Z,4.00
2022-10-21T17:55:07.715Z,4.30
2022-10-21T17:57:11.396Z,4.00
2022-10-21T17:59:13.202Z,4.28
2022-10-21T18:01:15.077Z,4.32
2022-10-21T18:03:18.135Z,5.50
2022-10-21T18:05:20.044Z,5.65
2022-10-21T18:07:22.534Z,6.47
2022-10-21T18:09:24.340Z,7.10
2022-10-21T18:11:26.229Z,8.13
2022-10-21T18:13:30.640Z,8.98
2022-10-21T18:15:33.734Z,10.18
2022-10-21T18:17:37.145Z,10.55
2022-10-21T18:19:39.017Z,11.05
2022-10-21T18:21:40.576Z,10.13
2022-10-21T18:23:43.755Z,11.02
2022-10-21T18:25:45.554Z,10.73
2022-10-21T18:27:47.474Z,10.13
2022-10-21T18:29:49.266Z,9.85
2022-10-21T18:31:51.116Z,10.27
2022-10-21T18:33:54.666Z,10.30
2022-10-21T18:35:56.646Z,10.02
2022-10-21T18:37:58.590Z,10.75
2022-10-21T18:40:00.253Z,10.00
2022-10-21T18:42:01.782Z,9.82
2022-10-21T18:44:08.137Z,10.48
2022-10-21T18:46:10.026Z,10.65
2022-10-21T18:48:11.569Z,11.48
2022-10-21T18:50:14.844Z,11.43
2022-10-21T18:52:16.405Z,10.57
2022-10-21T18:54:18.017Z,10.50
2022-10-21T18:56:22.446Z,10.10
2022-10-21T18:58:24.053Z,10.25
2022-10-21T19:00:25.747Z,9.60
2022-10-21T19:02:27.614Z,10.38
2022-10-21T19:04:29.473Z,10.32
2022-10-21T19:06:37.193Z,11.02
2022-10-21T19:08:39.127Z,10.32
2022-10-21T19:10:42.934Z,10.43
2022-10-21T19:12:44.526Z,9.77
2022-10-21T19:14:47.922Z,9.65
2022-10-21T19:16:49.855Z,9.10
2022-10-21T19:18:51.998Z,8.65
2022-10-21T19:20:53.683Z,8.30
2022-10-21T19:22:56.026Z,7.65
2022-10-21T19:24:57.752Z,7.40
2022-10-21T19:26:59.616Z,7.72
2022-10-21T19:29:08.221Z,6.90
2022-10-21T19:31:11.694Z,6.90
2022-10-21T19:33:13.245Z,6.90
2022-10-21T19:35:15.246Z,6.32
2022-10-21T19:37:16.962Z,5.75
2022-10-21T19:39:19.211Z,5.80
2022-10-21T19:41:22.569Z,5.40
2022-10-21T19:43:25.909Z,5.30
2022-10-21T19:45:27.819Z,5.00
2022-10-21T19:47:31.139Z,4.25
2022-10-21T19:49:33.029Z,4.38
2022-10-21T19:51:35.761Z,4.45
2022-10-21T19:53:37.283Z,4.30
2022-10-21T19:55:38.954Z,4.22
2022-10-21T19:57:41.873Z,4.72
2022-10-21T19:59:43.633Z,4.60
2022-10-21T20:01:45.230Z,5.00
2022-10-21T20:03:49.129Z,5.28
2022-10-21T20:05:50.825Z,6.00
2022-10-21T20:07:52.286Z,6.10
2022-10-21T20:09:53.898Z,5.90
2022-10-21T20:11:55.944Z,7.32
2022-10-21T20:13:58.076Z,7.05
2022-10-21T20:16:00.183Z,7.82
2022-10-21T20:18:01.707Z,8.48
2022-10-21T20:20:04.038Z,7.55
2022-10-21T20:22:05.684Z,7.82
2022-10-21T20:24:07.309Z,7.45
2022-10-21T20:26:08.974Z,7.75
2022-10-21T20:28:10.813Z,7.22
2022-10-21T20:30:12.307Z,7.38
2022-10-21T20:32:13.969Z,7.35
2022-10-21T20:34:15.692Z,7.65
2022-10-21T20:36:29.891Z,7.22
2022-10-21T20:38:32.251Z,6.13
2022-10-21T20:40:34.223Z,6.38
2022-10-21T20:42:36.021Z,6.07
2022-10-21T20:44:37.741Z,6.28
2022-10-21T20:46:39.405Z,6.07
2022-10-21T20:48:43.628Z,5.97
2022-10-21T20:50:45.233Z,6.38
2022-10-21T20:52:47.026Z,5.63
2022-10-21T20:54:51.691Z,6.50
2022-10-21T20:56:53.507Z,5.40
2022-10-21T20:58:55.864Z,6.50
2022-10-21T21:00:57.510Z,5.80
2022-10-21T21:02:59.157Z,5.95
2022-10-21T21:05:00.875Z,5.57
2022-10-21T21:07:02.485Z,6.20
2022-10-21T21:11:25.808Z,4.82
2022-10-21T21:13:27.615Z,5.30
2022-10-21T21:15:29.274Z,4.43
2022-10-21T21:17:30.830Z,4.18
2022-10-21T21:19:32.708Z,4.28
2022-10-21T21:21:36.377Z,3.85
2022-10-21T21:23:38.631Z,4.28
2022-10-21T21:25:40.234Z,3.92
2022-10-21T21:27:41.852Z,4.30
2022-10-21T21:29:43.377Z,4.40
2022-10-21T21:31:44.983Z,4.82
2022-10-21T21:33:46.975Z,4.63
2022-10-21T21:35:48.620Z,4.78
2022-10-21T21:37:50.471Z,4.85
2022-10-21T21:39:52.330Z,7.70
2022-10-21T21:41:54.053Z,8.77
2022-10-21T21:43:56.853Z,8.00
2022-10-21T21:46:00.845Z,6.95
2022-10-21T21:48:02.354Z,6.18
2022-10-21T21:50:04.094Z,5.47
2022-10-21T21:52:05.848Z,4.90
2022-10-21T21:54:10.314Z,7.45
2022-10-21T21:56:12.472Z,8.68
2022-10-21T21:58:14.119Z,10.80
2022-10-21T22:00:15.883Z,10.32
2022-10-21T22:02:17.654Z,11.18
2022-10-21T22:04:19.346Z,10.88
2022-10-21T22:06:23.580Z,9.38
2022-10-21T22:08:25.142Z,8.70
2022-10-21T22:10:27.256Z,8.55
2022-10-21T22:12:29.313Z,7.35
2022-10-21T22:14:30.937Z,7.72
2022-10-21T22:16:32.699Z,7.78
2022-10-21T22:18:35.090Z,7.25
2022-10-21T22:20:40.174Z,7.32
2022-10-21T22:22:42.014Z,7.10
2022-10-21T22:24:43.648Z,6.38
2022-10-21T22:26:45.341Z,7.95
2022-10-21T22:28:47.318Z,6.72
2022-10-21T22:31:03.805Z,11.57
2022-10-21T22:33:05.391Z,18.75
2022-10-21T22:35:11.113Z,20.65
2022-10-21T22:37:12.917Z,19.50
2022-10-21T22:39:14.515Z,15.60
2022-10-21T22:41:16.103Z,13.23
2022-10-21T22:43:17.663Z,10.90
2022-10-21T22:45:19.310Z,9.15
2022-10-21T22:47:23.438Z,7.95
2022-10-21T22:49:25.012Z,7.60
2022-10-21T22:51:26.771Z,6.55
2022-10-21T22:53:29.067Z,6.10
2022-10-21T22:55:30.602Z,5.82
2022-10-21T22:57:32.246Z,5.47
2022-10-21T22:59:33.831Z,5.13
2022-10-21T23:01:35.537Z,5.38
2022-10-21T23:03:37.317Z,5.13
2022-10-21T23:05:38.917Z,4.75
2022-10-21T23:07:41.020Z,4.97
2022-10-21T23:09:42.746Z,5.30
2022-10-21T23:11:44.347Z,4.57
2022-10-21T23:13:56.361Z,4.55
2022-10-21T23:16:05.270Z,4.60
2022-10-21T23:18:06.734Z,4.38
2022-10-21T23:20:08.844Z,4.10
2022-10-21T23:22:11.205Z,3.97
2022-10-21T23:24:13.125Z,4.00
2022-10-21T23:26:14.751Z,4.40
2022-10-21T23:30:25.679Z,4.05
2022-10-21T23:32:27.343Z,3.83
2022-10-21T23:34:29.230Z,3.97
2022-10-21T23:36:30.910Z,3.95
2022-10-21T23:38:32.607Z,4.15
2022-10-21T23:40:34.259Z,3.45
2022-10-21T23:42:40.313Z,3.85
2022-10-21T23:44:44.508Z,3.45
2022-10-21T23:46:46.129Z,3.78
2022-10-21T23:48:48.434Z,3.92
2022-10-21T23:50:50.050Z,4.00
2022-10-21T23:52:51.656Z,3.65
2022-10-21T23:54:53.177Z,4.00
2022-10-21T23:56:54.727Z,3.67
2022-10-21T23:58:56.496Z,3.70
